createdAt,value
2019-04-21T00:01:55.955Z,149.15
2019-04-21T00:04:38.029Z,148.13
2019-04-21T00:07:13.175Z,147.05
2019-04-21T00:09:50.666Z,148.75
2019-04-21T00:12:07.466Z,147.57
2019-04-21T00:14:31.492Z,148.95
2019-04-21T00:16:57.530Z,147.60
2019-04-21T00:19:28.805Z,148.17
2019-04-21T00:22:05.840Z,148.85
2019-04-21T00:24:39.842Z,148.30
2019-04-21T00:27:09.675Z,148.53
2019-04-21T00:32:07.315Z,148.87
2019-04-21T00:34:21.784Z,148.25
2019-04-21T00:37:00.094Z,147.25
2019-04-21T00:39:49.084Z,148.00
2019-04-21T00:42:08.416Z,147.72
2019-04-21T00:44:28.395Z,148.25
2019-04-21T00:47:04.146Z,148.22
2019-04-21T00:49:34.370Z,148.10
2019-04-21T00:52:37.965Z,149.82
2019-04-21T00:55:11.007Z,147.40
2019-04-21T00:57:35.588Z,147.17
2019-04-21T01:00:00.810Z,148.07
2019-04-21T01:02:29.754Z,147.78
2019-04-21T01:05:02.087Z,149.65
2019-04-21T01:07:30.535Z,148.65
2019-04-21T01:09:48.607Z,148.43
2019-04-21T01:12:29.794Z,149.35
2019-04-21T01:14:55.383Z,148.45
2019-04-21T01:17:21.718Z,148.15
2019-04-21T01:19:46.421Z,148.28
2019-04-21T01:22:01.371Z,148.32
2019-04-21T01:24:34.458Z,147.93
2019-04-21T01:27:11.142Z,147.37
2019-04-21T01:29:58.413Z,148.43
2019-04-21T01:32:39.047Z,148.95
2019-04-21T01:34:45.556Z,148.22
2019-04-21T01:37:15.912Z,148.43
2019-04-21T01:39:58.504Z,147.68
2019-04-21T01:42:15.867Z,147.53
2019-04-21T01:44:49.888Z,148.28
2019-04-21T01:47:10.239Z,148.43
2019-04-21T01:49:34.931Z,146.53
2019-04-21T01:52:26.941Z,147.05
2019-04-21T01:55:25.079Z,146.95
2019-04-21T01:58:06.018Z,147.20
2019-04-21T02:00:51.795Z,147.10
2019-04-21T02:03:37.454Z,146.13
2019-04-21T02:05:54.948Z,146.90
2019-04-21T02:08:11.207Z,148.15
2019-04-21T02:10:49.809Z,148.05
2019-04-21T02:13:11.828Z,147.37
2019-04-21T02:15:46.998Z,148.02
2019-04-21T02:18:13.483Z,148.02
2019-04-21T02:20:32.713Z,148.72
2019-04-21T02:23:34.745Z,146.55
2019-04-21T02:25:46.602Z,147.50
2019-04-21T02:28:24.494Z,146.98
2019-04-21T02:31:05.957Z,147.62
2019-04-21T02:36:04.830Z,148.25
2019-04-21T02:38:34.604Z,148.60
2019-04-21T02:43:36.514Z,149.53
2019-04-21T02:45:56.118Z,149.12
2019-04-21T02:53:30.570Z,147.87
2019-04-21T02:55:50.868Z,147.78
2019-04-21T02:58:41.645Z,147.53
2019-04-21T03:01:24.579Z,147.07
2019-04-21T03:04:04.917Z,147.62
2019-04-21T03:06:54.165Z,147.75
2019-04-21T03:09:18.302Z,149.60
2019-04-21T03:11:49.809Z,149.20
2019-04-21T03:14:16.065Z,148.43
2019-04-21T03:16:40.453Z,148.32
2019-04-21T03:19:33.152Z,148.00
2019-04-21T03:21:48.920Z,147.32
2019-04-21T03:24:24.700Z,148.07
2019-04-21T03:27:01.048Z,147.75
2019-04-21T03:29:22.773Z,149.47
2019-04-21T03:37:02.734Z,146.68
2019-04-21T03:39:09.550Z,148.28
2019-04-21T03:41:52.586Z,147.57
2019-04-21T03:46:43.870Z,147.07
2019-04-21T03:49:28.139Z,147.32
2019-04-21T03:51:37.456Z,146.30
2019-04-21T03:59:09.502Z,147.25
2019-04-21T04:04:56.892Z,147.45
2019-04-21T04:10:07.698Z,146.75
2019-04-21T04:12:36.571Z,147.20
2019-04-21T04:17:38.737Z,147.05
2019-04-21T04:20:09.028Z,146.77
2019-04-21T04:22:41.265Z,148.55
2019-04-21T04:25:19.167Z,147.50
2019-04-21T04:27:51.297Z,149.32
2019-04-21T04:30:21.679Z,148.07
2019-04-21T04:32:34.705Z,147.47
2019-04-21T04:35:10.350Z,146.47
2019-04-21T04:40:20.905Z,148.28
2019-04-21T04:42:55.947Z,147.07
2019-04-21T04:45:34.595Z,146.80
2019-04-21T04:48:03.523Z,146.72
2019-04-21T04:50:41.070Z,146.65
2019-04-21T04:55:38.945Z,146.35
2019-04-21T04:58:07.542Z,147.75
2019-04-21T05:00:48.055Z,148.90
2019-04-21T05:03:05.466Z,148.53
2019-04-21T05:06:42.449Z,148.17
2019-04-21T05:14:13.476Z,147.80
2019-04-21T05:16:56.013Z,147.75
2019-04-21T05:19:20.902Z,148.75
2019-04-21T05:22:04.941Z,148.15
2019-04-21T05:24:09.727Z,148.20
2019-04-21T05:26:33.169Z,149.12
2019-04-21T05:29:04.274Z,148.25
2019-04-21T05:32:12.834Z,147.90
2019-04-21T05:34:28.767Z,147.78
2019-04-21T05:37:20.203Z,147.57
2019-04-21T05:39:57.851Z,148.53
2019-04-21T05:42:27.423Z,148.15
2019-04-21T05:45:16.067Z,148.78
2019-04-21T05:47:57.866Z,147.82
2019-04-21T05:50:20.508Z,150.38
2019-04-21T05:52:53.516Z,148.25
2019-04-21T05:55:35.954Z,148.22
2019-04-21T05:58:02.659Z,148.30
2019-04-21T06:00:54.627Z,149.68
2019-04-21T06:03:05.404Z,148.22
2019-04-21T06:08:10.373Z,148.20
2019-04-21T06:10:43.650Z,150.32
2019-04-21T06:13:05.808Z,149.60
2019-04-21T06:15:36.124Z,150.05
2019-04-21T06:18:05.038Z,150.35
2019-04-21T06:20:37.055Z,149.62
2019-04-21T06:23:03.077Z,149.77
2019-04-21T06:28:03.563Z,149.60
2019-04-21T06:30:45.508Z,149.45
2019-04-21T06:33:01.892Z,149.95
2019-04-21T06:36:12.287Z,147.28
2019-04-21T06:38:54.491Z,148.28
2019-04-21T06:41:13.494Z,149.30
2019-04-21T06:43:49.974Z,149.20
2019-04-21T06:46:10.913Z,149.53
2019-04-21T06:48:42.680Z,150.78
2019-04-21T06:51:16.699Z,149.25
2019-04-21T06:53:44.373Z,151.05
2019-04-21T06:56:15.462Z,151.27
2019-04-21T06:58:40.029Z,151.42
2019-04-21T07:01:10.280Z,152.15
2019-04-21T07:03:40.476Z,150.50
2019-04-21T07:06:08.176Z,152.07
2019-04-21T07:08:44.687Z,152.62
2019-04-21T07:11:03.535Z,153.95
2019-04-21T07:13:31.233Z,150.12
2019-04-21T07:16:07.263Z,152.00
2019-04-21T07:18:36.487Z,151.25
2019-04-21T07:21:00.065Z,152.60
2019-04-21T07:23:32.361Z,151.35
2019-04-21T07:26:00.461Z,152.35
2019-04-21T07:28:31.945Z,150.25
2019-04-21T07:31:07.941Z,151.97
2019-04-21T07:35:55.471Z,151.50
2019-04-21T07:38:22.363Z,151.45
2019-04-21T07:40:48.368Z,151.30
2019-04-21T07:43:18.370Z,151.50
2019-04-21T07:45:45.909Z,152.20
2019-04-21T07:48:24.714Z,152.55
2019-04-21T07:51:17.367Z,153.97
2019-04-21T07:53:55.724Z,152.47
2019-04-21T07:56:07.298Z,154.32
2019-04-21T07:58:53.463Z,153.32
2019-04-21T08:03:49.076Z,154.82
2019-04-21T08:06:22.783Z,156.80
2019-04-21T08:08:51.053Z,152.82
2019-04-21T08:11:16.421Z,154.53
2019-04-21T08:13:47.313Z,153.60
2019-04-21T08:16:22.471Z,154.60
2019-04-21T08:18:49.547Z,153.38
2019-04-21T08:21:15.262Z,152.38
2019-04-21T08:23:43.610Z,151.78
2019-04-21T08:26:17.401Z,153.80
2019-04-21T08:28:47.478Z,154.27
2019-04-21T08:31:16.877Z,153.50
2019-04-21T08:33:56.466Z,152.80
2019-04-21T08:36:25.445Z,155.18
2019-04-21T08:38:51.490Z,152.60
2019-04-21T08:41:15.232Z,155.97
2019-04-21T08:46:12.970Z,155.12
2019-04-21T08:48:43.966Z,153.42
2019-04-21T08:51:26.154Z,154.25
2019-04-21T08:53:42.771Z,154.97
2019-04-21T08:56:18.192Z,154.55
2019-04-21T08:59:02.274Z,152.90
2019-04-21T09:01:55.488Z,153.40
2019-04-21T09:04:24.524Z,154.03
2019-04-21T09:06:58.864Z,153.45
2019-04-21T09:09:23.661Z,154.07
2019-04-21T09:11:55.333Z,153.85
2019-04-21T09:14:18.894Z,153.40
2019-04-21T09:16:47.265Z,153.42
2019-04-21T09:19:14.195Z,153.50
2019-04-21T09:21:49.926Z,154.65
2019-04-21T09:24:16.189Z,156.50
2019-04-21T09:26:40.653Z,154.27
2019-04-21T09:29:05.490Z,156.10
2019-04-21T09:31:33.945Z,157.03
2019-04-21T09:34:02.329Z,152.10
2019-04-21T09:36:36.217Z,155.15
2019-04-21T09:39:03.854Z,154.68
2019-04-21T09:41:26.353Z,153.62
2019-04-21T09:43:57.583Z,154.82
2019-04-21T09:46:35.409Z,155.07
2019-04-21T09:49:04.150Z,156.12
2019-04-21T09:51:28.493Z,156.45
2019-04-21T09:54:08.328Z,157.50
2019-04-21T09:56:40.683Z,160.05
2019-04-21T09:59:10.116Z,157.22
2019-04-21T10:01:46.988Z,154.95
2019-04-21T10:04:18.678Z,159.18
2019-04-21T10:06:54.461Z,156.87
2019-04-21T10:09:33.341Z,157.52
2019-04-21T10:12:03.767Z,159.30
2019-04-21T10:14:57.415Z,156.60
2019-04-21T10:17:47.420Z,161.00
2019-04-21T10:20:24.395Z,158.50
2019-04-21T10:22:53.180Z,156.97
2019-04-21T10:25:20.827Z,158.72
2019-04-21T10:27:49.492Z,157.10
2019-04-21T10:30:17.498Z,159.82
2019-04-21T10:33:37.192Z,160.18
2019-04-21T10:36:44.853Z,158.20
2019-04-21T10:39:31.619Z,156.78
2019-04-21T10:41:59.611Z,163.28
2019-04-21T10:45:05.402Z,162.37
2019-04-21T10:47:38.878Z,163.77
2019-04-21T10:50:29.493Z,161.82
2019-04-21T10:53:04.912Z,159.18
2019-04-21T10:55:48.570Z,158.32
2019-04-21T10:58:14.424Z,167.68
2019-04-21T11:00:46.154Z,166.15
2019-04-21T11:03:46.725Z,163.05
2019-04-21T11:06:16.927Z,160.88
2019-04-21T11:08:48.884Z,160.90
2019-04-21T11:11:14.156Z,158.10
2019-04-21T11:13:44.573Z,156.78
2019-04-21T11:16:13.087Z,155.37
2019-04-21T11:18:41.956Z,158.87
2019-04-21T11:21:11.176Z,160.05
2019-04-21T11:23:38.289Z,163.40
2019-04-21T11:26:06.611Z,162.80
2019-04-21T11:28:35.035Z,164.60
2019-04-21T11:31:02.662Z,161.77
2019-04-21T11:33:45.247Z,161.45
2019-04-21T11:36:15.711Z,161.60
2019-04-21T11:39:09.839Z,164.55
2019-04-21T11:41:27.769Z,161.68
2019-04-21T11:43:57.246Z,161.88
2019-04-21T11:46:26.644Z,162.12
2019-04-21T11:49:06.431Z,165.97
2019-04-21T11:51:35.243Z,165.75
2019-04-21T11:54:02.353Z,166.47
2019-04-21T11:56:37.083Z,162.53
2019-04-21T11:59:08.045Z,157.65
2019-04-21T12:01:35.939Z,155.72
2019-04-21T12:04:09.793Z,160.05
2019-04-21T12:06:47.032Z,161.73
2019-04-21T12:09:12.099Z,156.93
2019-04-21T12:11:39.408Z,159.27
2019-04-21T12:14:07.918Z,162.37
2019-04-21T12:16:37.083Z,157.40
2019-04-21T12:19:07.188Z,158.00
2019-04-21T12:21:46.609Z,157.05
2019-04-21T12:24:04.733Z,158.90
2019-04-21T12:26:31.926Z,158.40
2019-04-21T12:29:08.086Z,164.03
2019-04-21T12:31:57.211Z,156.95
2019-04-21T12:34:25.930Z,160.75
2019-04-21T12:36:53.291Z,160.18
2019-04-21T12:39:20.889Z,157.65
2019-04-21T12:41:48.863Z,160.80
2019-04-21T12:44:16.495Z,161.22
2019-04-21T12:46:47.747Z,158.80
2019-04-21T12:49:15.950Z,159.97
2019-04-21T12:51:46.090Z,161.65
2019-04-21T12:54:21.670Z,162.05
2019-04-21T12:57:01.451Z,158.05
2019-04-21T12:59:32.465Z,159.20
2019-04-21T13:01:59.052Z,157.88
2019-04-21T13:04:27.831Z,157.35
2019-04-21T13:06:57.333Z,169.37
2019-04-21T13:09:27.444Z,162.35
2019-04-21T13:11:53.644Z,164.20
2019-04-21T13:14:23.740Z,163.20
2019-04-21T13:16:52.587Z,164.03
2019-04-21T13:19:20.970Z,160.22
2019-04-21T13:21:52.058Z,161.65
2019-04-21T13:24:19.991Z,164.20
2019-04-21T13:26:53.598Z,169.17
2019-04-21T13:29:18.414Z,169.43
2019-04-21T13:31:46.102Z,167.45
2019-04-21T13:34:13.879Z,169.22
2019-04-21T13:36:43.578Z,162.77
2019-04-21T13:42:34.210Z,162.27
2019-04-21T13:44:57.909Z,165.28
2019-04-21T13:47:26.583Z,168.90
2019-04-21T13:50:02.938Z,169.93
2019-04-21T13:52:31.016Z,166.43
2019-04-21T13:55:01.409Z,163.00
2019-04-21T13:57:38.701Z,163.90
2019-04-21T14:00:08.960Z,165.40
2019-04-21T14:02:38.656Z,165.35
2019-04-21T14:05:08.565Z,162.07
2019-04-21T14:07:38.483Z,158.68
2019-04-21T14:10:08.446Z,158.52
2019-04-21T14:12:36.188Z,160.22
2019-04-21T14:15:15.558Z,159.78
2019-04-21T14:17:50.943Z,161.00
2019-04-21T14:20:19.553Z,158.55
2019-04-21T14:22:46.676Z,158.82
2019-04-21T14:25:15.351Z,160.22
2019-04-21T14:27:44.306Z,161.77
2019-04-21T14:30:12.541Z,161.95
2019-04-21T14:32:40.172Z,164.62
2019-04-21T14:35:10.940Z,167.37
2019-04-21T14:37:42.460Z,166.12
2019-04-21T14:40:14.600Z,166.50
2019-04-21T14:42:40.213Z,164.10
2019-04-21T14:45:09.895Z,160.22
2019-04-21T14:47:53.912Z,165.30
2019-04-21T14:50:48.087Z,164.85
2019-04-21T14:53:26.059Z,159.78
2019-04-21T14:55:55.316Z,163.37
2019-04-21T14:58:23.403Z,165.60
2019-04-21T15:00:57.912Z,168.28
2019-04-21T15:03:25.868Z,166.15
2019-04-21T15:05:55.819Z,163.20
2019-04-21T15:08:22.884Z,164.22
2019-04-21T15:10:50.291Z,169.05
2019-04-21T15:13:17.461Z,162.35
2019-04-21T15:15:45.689Z,167.37
2019-04-21T15:18:12.979Z,166.30
2019-04-21T15:20:42.789Z,167.45
2019-04-21T15:23:14.993Z,166.82
2019-04-21T15:25:43.894Z,169.72
2019-04-21T15:28:17.875Z,166.65
2019-04-21T15:31:08.382Z,160.55
2019-04-21T15:33:41.287Z,160.10
2019-04-21T15:36:11.267Z,161.28
2019-04-21T15:38:45.772Z,162.43
2019-04-21T15:41:22.666Z,160.20
2019-04-21T15:44:01.273Z,158.10
2019-04-21T15:46:34.739Z,156.10
2019-04-21T15:49:04.950Z,158.85
2019-04-21T15:51:32.112Z,158.57
2019-04-21T15:54:02.705Z,160.45
2019-04-21T15:56:51.075Z,158.25
2019-04-21T15:59:56.062Z,164.03
2019-04-21T16:02:44.520Z,164.30
2019-04-21T16:05:13.013Z,158.87
2019-04-21T16:07:40.408Z,156.87
2019-04-21T16:10:11.634Z,157.88
2019-04-21T16:12:40.149Z,162.45
2019-04-21T16:15:08.535Z,159.20
2019-04-21T16:17:37.306Z,159.63
2019-04-21T16:20:06.159Z,161.95
2019-04-21T16:22:34.706Z,163.25
2019-04-21T16:25:03.354Z,162.15
2019-04-21T16:27:30.541Z,161.30
2019-04-21T16:29:57.716Z,158.42
2019-04-21T16:32:26.027Z,160.40
2019-04-21T16:35:01.523Z,156.75
2019-04-21T16:37:23.612Z,162.65
2019-04-21T16:39:51.651Z,162.20
2019-04-21T16:42:20.347Z,159.78
2019-04-21T16:44:48.915Z,157.40
2019-04-21T16:47:19.399Z,161.82
2019-04-21T16:49:47.554Z,161.00
2019-04-21T16:52:18.360Z,158.35
2019-04-21T16:55:13.182Z,160.48
2019-04-21T16:57:43.896Z,166.10
2019-04-21T17:00:26.965Z,162.60
2019-04-21T17:02:46.577Z,162.68
2019-04-21T17:05:14.372Z,160.80
2019-04-21T17:07:42.907Z,161.60
2019-04-21T17:10:12.817Z,165.18
2019-04-21T17:12:41.717Z,161.57
2019-04-21T17:15:32.285Z,162.00
2019-04-21T17:18:04.280Z,159.60
2019-04-21T17:20:27.864Z,159.20
2019-04-21T17:22:44.096Z,158.42
2019-04-21T17:25:18.129Z,159.65
2019-04-21T17:27:56.890Z,156.18
2019-04-21T17:30:36.474Z,159.82
2019-04-21T17:33:05.655Z,157.78
2019-04-21T17:35:35.236Z,157.65
2019-04-21T17:38:03.887Z,160.03
2019-04-21T17:40:33.784Z,160.28
2019-04-21T17:43:07.565Z,160.22
2019-04-21T17:45:35.130Z,158.57
2019-04-21T17:48:06.006Z,158.80
2019-04-21T17:50:57.561Z,156.80
2019-04-21T17:53:38.219Z,158.57
2019-04-21T17:56:23.473Z,164.15
2019-04-21T17:58:58.465Z,158.70
2019-04-21T18:01:32.254Z,157.12
2019-04-21T18:04:06.290Z,157.40
2019-04-21T18:06:30.947Z,158.57
2019-04-21T18:09:12.627Z,155.15
2019-04-21T18:11:28.948Z,155.75
2019-04-21T18:13:41.996Z,157.32
2019-04-21T18:16:20.705Z,153.68
2019-04-21T18:18:46.651Z,153.25
2019-04-21T18:21:22.538Z,153.87
2019-04-21T18:24:04.968Z,154.63
2019-04-21T18:26:35.020Z,155.03
2019-04-21T18:28:53.837Z,155.87
2019-04-21T18:31:20.930Z,154.15
2019-04-21T18:34:03.502Z,154.15
2019-04-21T18:36:34.923Z,154.20
2019-04-21T18:39:38.228Z,151.50
2019-04-21T18:42:17.494Z,153.70
2019-04-21T18:45:28.442Z,153.55
2019-04-21T18:47:48.931Z,153.68
2019-04-21T18:50:24.157Z,151.50
2019-04-21T18:53:13.033Z,150.97
2019-04-21T18:55:37.331Z,151.18
2019-04-21T18:57:59.055Z,148.93
2019-04-21T19:00:32.787Z,151.78
2019-04-21T19:02:58.281Z,153.57
2019-04-21T19:05:27.903Z,149.72
2019-04-21T19:08:15.173Z,149.12
2019-04-21T19:10:53.666Z,149.65
2019-04-21T19:16:03.250Z,148.87
2019-04-21T19:20:56.706Z,148.25
2019-04-21T19:23:33.903Z,148.75
2019-04-21T19:26:11.089Z,148.70
2019-04-21T19:28:26.971Z,151.47
2019-04-21T19:30:57.653Z,150.03
2019-04-21T19:33:22.437Z,148.78
2019-04-21T19:35:37.269Z,149.95
2019-04-21T19:38:11.967Z,150.72
2019-04-21T19:40:52.226Z,150.20
2019-04-21T19:43:31.468Z,149.53
2019-04-21T19:45:54.246Z,150.00
2019-04-21T19:48:25.213Z,148.75
2019-04-21T19:50:57.815Z,149.95
2019-04-21T19:53:21.350Z,148.97
2019-04-21T19:55:36.181Z,150.07
2019-04-21T19:58:03.528Z,147.95
2019-04-21T20:00:32.956Z,149.77
2019-04-21T20:03:06.137Z,148.65
2019-04-21T20:05:41.799Z,149.77
2019-04-21T20:08:17.691Z,149.32
2019-04-21T20:10:48.498Z,148.72
2019-04-21T20:13:25.968Z,149.00
2019-04-21T20:15:51.068Z,148.75
2019-04-21T20:18:16.434Z,149.07
2019-04-21T20:20:33.029Z,149.35
2019-04-21T20:23:08.817Z,147.78
2019-04-21T20:25:41.614Z,148.47
2019-04-21T20:28:14.761Z,148.00
2019-04-21T20:30:49.003Z,147.00
2019-04-21T20:33:41.664Z,148.43
2019-04-21T20:36:09.682Z,148.20
2019-04-21T20:38:16.029Z,146.75
2019-04-21T20:40:45.769Z,148.05
2019-04-21T20:43:28.478Z,146.80
2019-04-21T20:46:00.503Z,150.87
2019-04-21T20:48:18.231Z,150.42
2019-04-21T20:50:57.260Z,147.57
2019-04-21T20:53:27.488Z,148.53
2019-04-21T20:55:58.143Z,147.15
2019-04-21T20:58:31.887Z,146.13
2019-04-21T21:01:20.871Z,146.80
2019-04-21T21:03:34.885Z,145.90
2019-04-21T21:06:00.317Z,146.28
2019-04-21T21:08:36.001Z,147.45
2019-04-21T21:10:58.710Z,146.13
2019-04-21T21:13:39.475Z,145.15
2019-04-21T21:16:12.143Z,145.85
2019-04-21T21:18:48.666Z,145.20
2019-04-21T21:21:09.566Z,147.00
2019-04-21T21:23:38.781Z,145.55
2019-04-21T21:26:09.860Z,144.97
2019-04-21T21:28:38.026Z,144.30
2019-04-21T21:31:07.422Z,145.22
2019-04-21T21:33:46.724Z,145.30
2019-04-21T21:36:09.127Z,144.95
2019-04-21T21:38:36.317Z,144.55
2019-04-21T21:40:57.210Z,144.93
2019-04-21T21:43:21.509Z,144.57
2019-04-21T21:45:51.905Z,143.70
2019-04-21T21:48:31.849Z,143.70
2019-04-21T21:50:56.620Z,144.75
2019-04-21T21:53:19.770Z,144.70
2019-04-21T21:55:46.715Z,146.20
2019-04-21T21:58:15.642Z,143.07
2019-04-21T22:00:49.969Z,145.00
2019-04-21T22:03:24.444Z,144.97
2019-04-21T22:05:53.550Z,145.00
2019-04-21T22:08:14.437Z,144.45
2019-04-21T22:10:43.186Z,145.40
2019-04-21T22:13:17.762Z,145.43
2019-04-21T22:15:43.576Z,144.55
2019-04-21T22:18:28.521Z,144.30
2019-04-21T22:20:55.040Z,144.40
2019-04-21T22:23:13.965Z,145.72
2019-04-21T22:25:41.844Z,144.20
2019-04-21T22:28:09.478Z,143.93
2019-04-21T22:30:42.729Z,145.97
2019-04-21T22:33:08.928Z,144.17
2019-04-21T22:35:42.494Z,145.80
2019-04-21T22:38:21.129Z,144.70
2019-04-21T22:40:47.778Z,145.15
2019-04-21T22:43:11.386Z,143.78
2019-04-21T22:45:31.570Z,145.15
2019-04-21T22:48:13.541Z,145.55
2019-04-21T22:50:35.730Z,144.22
2019-04-21T22:53:07.152Z,145.85
2019-04-21T22:55:35.086Z,145.70
2019-04-21T22:58:05.480Z,144.10
2019-04-21T23:00:42.915Z,145.97
2019-04-21T23:03:09.874Z,145.80
2019-04-21T23:05:36.282Z,147.05
2019-04-21T23:08:03.440Z,147.60
2019-04-21T23:10:29.521Z,146.60
2019-04-21T23:12:59.550Z,147.13
2019-04-21T23:15:34.605Z,144.10
2019-04-21T23:18:12.072Z,144.02
2019-04-21T23:20:46.176Z,144.40
2019-04-21T23:23:16.362Z,143.97
2019-04-21T23:25:42.557Z,144.97
2019-04-21T23:28:11.513Z,144.75
2019-04-21T23:30:50.291Z,144.00
2019-04-21T23:33:02.425Z,144.75
2019-04-21T23:35:30.413Z,146.98
2019-04-21T23:37:59.729Z,145.55
2019-04-21T23:40:25.456Z,145.55
2019-04-21T23:42:51.301Z,144.37
2019-04-21T23:45:25.252Z,145.00
2019-04-21T23:48:10.714Z,145.62
2019-04-21T23:50:35.255Z,145.43
2019-04-21T23:52:55.421Z,145.68
2019-04-21T23:55:23.249Z,146.00
2019-04-21T23:58:03.386Z,146.65
